sensor_id;sensor_type;location;lat;lon;timestamp;P1;P2;P0
40569;PMS5003;26270;34.428;-119.710;2023-02-01T00:01:26;1;1;
40569;PMS5003;26270;34.428;-119.710;2023-02-01T00:03:54;0;0;
40569;PMS5003;26270;34.428;-119.710;2023-02-01T00:06:22;1;1;
40569;PMS5003;26270;34.428;-119.710;2023-02-01T00:08:52;0;0;
40569;PMS5003;26270;34.428;-119.710;2023-02-01T00:11:21;1;1;
40569;PMS5003;26270;34.428;-119.710;2023-02-01T00:13:50;0;0;
40569;PMS5003;26270;34.428;-119.710;2023-02-01T00:16:20;0;0;
40569;PMS5003;26270;34.428;-119.710;2023-02-01T00:18:50;1;1;
40569;PMS5003;26270;34.428;-119.710;2023-02-01T00:21:23;4;2;
40569;PMS5003;26270;34.428;-119.710;2023-02-01T00:23:51;1;0;
40569;PMS5003;26270;34.428;-119.710;2023-02-01T00:26:20;1;1;
40569;PMS5003;26270;34.428;-119.710;2023-02-01T00:28:54;1;1;
40569;PMS5003;26270;34.428;-119.710;2023-02-01T00:31:23;1;1;
40569;PMS5003;26270;34.428;-119.710;2023-02-01T00:33:51;2;2;
40569;PMS5003;26270;34.428;-119.710;2023-02-01T00:36:19;2;2;
40569;PMS5003;26270;34.428;-119.710;2023-02-01T00:38:48;2;2;
40569;PMS5003;26270;34.428;-119.710;2023-02-01T00:41:17;0;0;
40569;PMS5003;26270;34.428;-119.710;2023-02-01T00:43:46;0;0;
40569;PMS5003;26270;34.428;-119.710;2023-02-01T00:46:15;1;1;
40569;PMS5003;26270;34.428;-119.710;2023-02-01T00:48:45;1;0;
40569;PMS5003;26270;34.428;-119.710;2023-02-01T00:51:14;1;1;
40569;PMS5003;26270;34.428;-119.710;2023-02-01T00:53:44;1;1;
40569;PMS5003;26270;34.428;-119.710;2023-02-01T00:56:11;2;2;
40569;PMS5003;26270;34.428;-119.710;2023-02-01T00:58:40;2;2;
40569;PMS5003;26270;34.428;-119.710;2023-02-01T01:01:09;1;1;
40569;PMS5003;26270;34.428;-119.710;2023-02-01T01:03:40;1;1;
40569;PMS5003;26270;34.428;-119.710;2023-02-01T01:06:10;1;1;
40569;PMS5003;26270;34.428;-119.710;2023-02-01T01:08:40;1;0;
40569;PMS5003;26270;34.428;-119.710;2023-02-01T01:11:09;1;0;
40569;PMS5003;26270;34.428;-119.710;2023-02-01T01:13:39;1;0;
40569;PMS5003;26270;34.428;-119.710;2023-02-01T01:16:09;2;1;
40569;PMS5003;26270;34.428;-119.710;2023-02-01T01:18:38;2;2;
40569;PMS5003;26270;34.428;-119.710;2023-02-01T01:21:07;3;3;
40569;PMS5003;26270;34.428;-119.710;2023-02-01T01:23:36;1;1;
40569;PMS5003;26270;34.428;-119.710;2023-02-01T01:26:05;2;1;
40569;PMS5003;26270;34.428;-119.710;2023-02-01T01:28:34;3;2;
40569;PMS5003;26270;34.428;-119.710;2023-02-01T01:31:03;1;1;
40569;PMS5003;26270;34.428;-119.710;2023-02-01T01:33:34;1;1;
40569;PMS5003;26270;34.428;-119.710;2023-02-01T01:36:04;3;3;
40569;PMS5003;26270;34.428;-119.710;2023-02-01T01:38:32;2;2;
40569;PMS5003;26270;34.428;-119.710;2023-02-01T01:41:01;3;3;
40569;PMS5003;26270;34.428;-119.710;2023-02-01T01:43:44;3;3;
40569;PMS5003;26270;34.428;-119.710;2023-02-01T01:46:15;5;4;
40569;PMS5003;26270;34.428;-119.710;2023-02-01T01:48:44;4;4;
40569;PMS5003;26270;34.428;-119.710;2023-02-01T01:51:17;5;5;
40569;PMS5003;26270;34.428;-119.710;2023-02-01T01:53:49;4;3;
40569;PMS5003;26270;34.428;-119.710;2023-02-01T01:56:22;4;3;
40569;PMS5003;26270;34.428;-119.710;2023-02-01T01:58:52;3;3;
40569;PMS5003;26270;34.428;-119.710;2023-02-01T02:01:21;4;3;
40569;PMS5003;26270;34.428;-119.710;2023-02-01T02:03:49;3;3;
40569;PMS5003;26270;34.428;-119.710;2023-02-01T02:06:21;3;3;
40569;PMS5003;26270;34.428;-119.710;2023-02-01T02:08:58;3;3;
40569;PMS5003;26270;34.428;-119.710;2023-02-01T02:11:26;3;3;
40569;PMS5003;26270;34.428;-119.710;2023-02-01T02:13:54;4;3;
40569;PMS5003;26270;34.428;-119.710;2023-02-01T02:16:29;3;2;
40569;PMS5003;26270;34.428;-119.710;2023-02-01T02:19:19;2;2;
40569;PMS5003;26270;34.428;-119.710;2023-02-01T02:22:12;3;2;
40569;PMS5003;26270;34.428;-119.710;2023-02-01T02:23:37;3;2;
40569;PMS5003;26270;34.428;-119.710;2023-02-01T02:26:24;2;2;
40569;PMS5003;26270;34.428;-119.710;2023-02-01T02:29:12;4;4;
40569;PMS5003;26270;34.428;-119.710;2023-02-01T02:32:27;5;5;
40569;PMS5003;26270;34.428;-119.710;2023-02-01T02:34:46;5;5;
40569;PMS5003;26270;34.428;-119.710;2023-02-01T02:37:21;5;5;
40569;PMS5003;26270;34.428;-119.710;2023-02-01T02:39:57;5;5;
40569;PMS5003;26270;34.428;-119.710;2023-02-01T02:42:32;5;5;
40569;PMS5003;26270;34.428;-119.710;2023-02-01T02:45:06;5;5;
40569;PMS5003;26270;34.428;-119.710;2023-02-01T02:47:41;8;7;
40569;PMS5003;26270;34.428;-119.710;2023-02-01T02:50:16;6;6;
40569;PMS5003;26270;34.428;-119.710;2023-02-01T02:52:52;8;5;
40569;PMS5003;26270;34.428;-119.710;2023-02-01T02:55:27;4;4;
40569;PMS5003;26270;34.428;-119.710;2023-02-01T02:57:57;4;4;
40569;PMS5003;26270;34.428;-119.710;2023-02-01T03:00:27;6;5;
40569;PMS5003;26270;34.428;-119.710;2023-02-01T03:02:59;7;5;
40569;PMS5003;26270;34.428;-119.710;2023-02-01T03:05:32;8;7;
40569;PMS5003;26270;34.428;-119.710;2023-02-01T03:08:02;5;5;
40569;PMS5003;26270;34.428;-119.710;2023-02-01T03:10:35;5;4;
40569;PMS5003;26270;34.428;-119.710;2023-02-01T03:13:12;6;6;
40569;PMS5003;26270;34.428;-119.710;2023-02-01T03:15:48;5;5;
40569;PMS5003;26270;34.428;-119.710;2023-02-01T03:18:22;5;5;
40569;PMS5003;26270;34.428;-119.710;2023-02-01T03:20:57;6;4;
40569;PMS5003;26270;34.428;-119.710;2023-02-01T03:23:30;6;6;
40569;PMS5003;26270;34.428;-119.710;2023-02-01T03:26:01;6;6;
40569;PMS5003;26270;34.428;-119.710;2023-02-01T03:28:31;5;5;
40569;PMS5003;26270;34.428;-119.710;2023-02-01T03:31:00;6;5;
40569;PMS5003;26270;34.428;-119.710;2023-02-01T03:33:29;6;6;
40569;PMS5003;26270;34.428;-119.710;2023-02-01T03:36:00;45;42;
40569;PMS5003;26270;34.428;-119.710;2023-02-01T03:38:37;27;27;
40569;PMS5003;26270;34.428;-119.710;2023-02-01T03:41:12;20;20;
40569;PMS5003;26270;34.428;-119.710;2023-02-01T03:43:47;30;26;
40569;PMS5003;26270;34.428;-119.710;2023-02-01T03:46:22;21;21;
40569;PMS5003;26270;34.428;-119.710;2023-02-01T03:48:55;16;16;
40569;PMS5003;26270;34.428;-119.710;2023-02-01T03:51:24;12;12;
40569;PMS5003;26270;34.428;-119.710;2023-02-01T03:53:52;17;15;
40569;PMS5003;26270;34.428;-119.710;2023-02-01T03:56:22;52;45;
40569;PMS5003;26270;34.428;-119.710;2023-02-01T03:58:52;20;18;
40569;PMS5003;26270;34.428;-119.710;2023-02-01T04:01:20;7;7;
40569;PMS5003;26270;34.428;-119.710;2023-02-01T04:03:48;9;8;
40569;PMS5003;26270;34.428;-119.710;2023-02-01T04:06:16;10;8;
40569;PMS5003;26270;34.428;-119.710;2023-02-01T04:08:44;10;9;
40569;PMS5003;26270;34.428;-119.710;2023-02-01T04:11:12;10;10;
40569;PMS5003;26270;34.428;-119.710;2023-02-01T04:13:40;15;15;
40569;PMS5003;26270;34.428;-119.710;2023-02-01T04:16:08;12;11;
40569;PMS5003;26270;34.428;-119.710;2023-02-01T04:18:36;10;9;
40569;PMS5003;26270;34.428;-119.710;2023-02-01T04:21:05;8;8;
40569;PMS5003;26270;34.428;-119.710;2023-02-01T04:23:34;17;16;
40569;PMS5003;26270;34.428;-119.710;2023-02-01T04:26:03;20;18;
40569;PMS5003;26270;34.428;-119.710;2023-02-01T04:28:31;20;20;
40569;PMS5003;26270;34.428;-119.710;2023-02-01T04:30:59;23;22;
40569;PMS5003;26270;34.428;-119.710;2023-02-01T04:33:28;22;20;
40569;PMS5003;26270;34.428;-119.710;2023-02-01T04:35:56;17;16;
40569;PMS5003;26270;34.428;-119.710;2023-02-01T04:38:24;18;16;
40569;PMS5003;26270;34.428;-119.710;2023-02-01T04:40:52;16;15;
40569;PMS5003;26270;34.428;-119.710;2023-02-01T04:43:20;15;13;
40569;PMS5003;26270;34.428;-119.710;2023-02-01T04:45:48;19;19;
40569;PMS5003;26270;34.428;-119.710;2023-02-01T04:48:17;20;19;
40569;PMS5003;26270;34.428;-119.710;2023-02-01T04:50:46;15;15;
40569;PMS5003;26270;34.428;-119.710;2023-02-01T04:53:15;14;14;
40569;PMS5003;26270;34.428;-119.710;2023-02-01T04:55:43;15;15;
40569;PMS5003;26270;34.428;-119.710;2023-02-01T04:58:14;11;11;
40569;PMS5003;26270;34.428;-119.710;2023-02-01T05:03:19;11;9;
40569;PMS5003;26270;34.428;-119.710;2023-02-01T05:05:47;12;11;
40569;PMS5003;26270;34.428;-119.710;2023-02-01T05:08:15;13;13;
40569;PMS5003;26270;34.428;-119.710;2023-02-01T05:10:44;16;15;
40569;PMS5003;26270;34.428;-119.710;2023-02-01T05:13:12;9;9;
40569;PMS5003;26270;34.428;-119.710;2023-02-01T05:15:40;7;6;
40569;PMS5003;26270;34.428;-119.710;2023-02-01T05:18:08;8;8;
40569;PMS5003;26270;34.428;-119.710;2023-02-01T05:20:37;9;8;
40569;PMS5003;26270;34.428;-119.710;2023-02-01T05:23:04;8;7;
40569;PMS5003;26270;34.428;-119.710;2023-02-01T05:25:33;13;12;
40569;PMS5003;26270;34.428;-119.710;2023-02-01T05:28:01;14;14;
40569;PMS5003;26270;34.428;-119.710;2023-02-01T05:30:28;9;9;
40569;PMS5003;26270;34.428;-119.710;2023-02-01T05:32:56;11;11;
40569;PMS5003;26270;34.428;-119.710;2023-02-01T05:35:24;11;11;
40569;PMS5003;26270;34.428;-119.710;2023-02-01T05:37:52;13;12;
40569;PMS5003;26270;34.428;-119.710;2023-02-01T05:40:19;12;11;
40569;PMS5003;26270;34.428;-119.710;2023-02-01T05:42:48;12;9;
40569;PMS5003;26270;34.428;-119.710;2023-02-01T05:45:16;13;11;
40569;PMS5003;26270;34.428;-119.710;2023-02-01T05:47:44;13;9;
40569;PMS5003;26270;34.428;-119.710;2023-02-01T05:50:12;11;11;
40569;PMS5003;26270;34.428;-119.710;2023-02-01T05:50:14;11;11;
40569;PMS5003;26270;34.428;-119.710;2023-02-01T05:52:42;7;7;
40569;PMS5003;26270;34.428;-119.710;2023-02-01T05:55:10;8;8;
40569;PMS5003;26270;34.428;-119.710;2023-02-01T05:57:43;7;7;
40569;PMS5003;26270;34.428;-119.710;2023-02-01T06:00:11;10;10;
40569;PMS5003;26270;34.428;-119.710;2023-02-01T06:02:40;7;7;
40569;PMS5003;26270;34.428;-119.710;2023-02-01T06:05:08;7;7;
40569;PMS5003;26270;34.428;-119.710;2023-02-01T06:07:36;7;7;
40569;PMS5003;26270;34.428;-119.710;2023-02-01T06:10:05;13;13;
40569;PMS5003;26270;34.428;-119.710;2023-02-01T06:12:33;12;11;
40569;PMS5003;26270;34.428;-119.710;2023-02-01T06:15:02;16;9;
40569;PMS5003;26270;34.428;-119.710;2023-02-01T06:17:30;11;11;
40569;PMS5003;26270;34.428;-119.710;2023-02-01T06:19:58;15;15;
40569;PMS5003;26270;34.428;-119.710;2023-02-01T06:22:26;20;20;
40569;PMS5003;26270;34.428;-119.710;2023-02-01T06:24:53;22;22;
40569;PMS5003;26270;34.428;-119.710;2023-02-01T06:27:21;25;25;
40569;PMS5003;26270;34.428;-119.710;2023-02-01T06:29:49;31;30;
40569;PMS5003;26270;34.428;-119.710;2023-02-01T06:32:18;25;25;
40569;PMS5003;26270;34.428;-119.710;2023-02-01T06:34:46;31;31;
40569;PMS5003;26270;34.428;-119.710;2023-02-01T06:37:14;47;46;
40569;PMS5003;26270;34.428;-119.710;2023-02-01T06:39:41;37;36;
40569;PMS5003;26270;34.428;-119.710;2023-02-01T06:42:09;29;29;
40569;PMS5003;26270;34.428;-119.710;2023-02-01T06:44:37;21;21;
40569;PMS5003;26270;34.428;-119.710;2023-02-01T06:47:05;11;8;
40569;PMS5003;26270;34.428;-119.710;2023-02-01T06:49:33;10;8;
40569;PMS5003;26270;34.428;-119.710;2023-02-01T06:52:02;9;8;
40569;PMS5003;26270;34.428;-119.710;2023-02-01T06:54:30;8;8;
40569;PMS5003;26270;34.428;-119.710;2023-02-01T06:56:58;6;6;
40569;PMS5003;26270;34.428;-119.710;2023-02-01T06:59:26;8;8;
40569;PMS5003;26270;34.428;-119.710;2023-02-01T07:01:54;16;12;
40569;PMS5003;26270;34.428;-119.710;2023-02-01T07:04:22;12;11;
40569;PMS5003;26270;34.428;-119.710;2023-02-01T07:06:49;13;12;
40569;PMS5003;26270;34.428;-119.710;2023-02-01T07:09:18;12;12;
40569;PMS5003;26270;34.428;-119.710;2023-02-01T07:11:46;10;10;
40569;PMS5003;26270;34.428;-119.710;2023-02-01T07:14:14;14;11;
40569;PMS5003;26270;34.428;-119.710;2023-02-01T07:16:43;14;14;
40569;PMS5003;26270;34.428;-119.710;2023-02-01T07:19:11;25;25;
40569;PMS5003;26270;34.428;-119.710;2023-02-01T07:21:39;31;31;
40569;PMS5003;26270;34.428;-119.710;2023-02-01T07:24:07;36;36;
40569;PMS5003;26270;34.428;-119.710;2023-02-01T07:26:35;30;29;
40569;PMS5003;26270;34.428;-119.710;2023-02-01T07:29:04;89;89;
40569;PMS5003;26270;34.428;-119.710;2023-02-01T07:31:31;96;95;
40569;PMS5003;26270;34.428;-119.710;2023-02-01T07:33:59;66;66;
40569;PMS5003;26270;34.428;-119.710;2023-02-01T07:36:27;74;74;
40569;PMS5003;26270;34.428;-119.710;2023-02-01T07:38:56;35;34;
40569;PMS5003;26270;34.428;-119.710;2023-02-01T07:41:25;62;59;
40569;PMS5003;26270;34.428;-119.710;2023-02-01T07:43:53;113;112;
40569;PMS5003;26270;34.428;-119.710;2023-02-01T07:46:22;82;81;
40569;PMS5003;26270;34.428;-119.710;2023-02-01T07:48:51;32;31;
40569;PMS5003;26270;34.428;-119.710;2023-02-01T07:51:18;20;20;
40569;PMS5003;26270;34.428;-119.710;2023-02-01T07:53:46;26;25;
40569;PMS5003;26270;34.428;-119.710;2023-02-01T07:56:15;4;3;
40569;PMS5003;26270;34.428;-119.710;2023-02-01T07:58:47;2;2;
40569;PMS5003;26270;34.428;-119.710;2023-02-01T08:01:16;3;2;
40569;PMS5003;26270;34.428;-119.710;2023-02-01T08:03:45;3;2;
40569;PMS5003;26270;34.428;-119.710;2023-02-01T08:06:14;2;2;
40569;PMS5003;26270;34.428;-119.710;2023-02-01T08:08:42;4;3;
40569;PMS5003;26270;34.428;-119.710;2023-02-01T08:11:10;4;4;
40569;PMS5003;26270;34.428;-119.710;2023-02-01T08:13:38;3;3;
40569;PMS5003;26270;34.428;-119.710;2023-02-01T08:16:07;4;4;
40569;PMS5003;26270;34.428;-119.710;2023-02-01T08:18:37;2;2;
40569;PMS5003;26270;34.428;-119.710;2023-02-01T08:21:06;3;3;
40569;PMS5003;26270;34.428;-119.710;2023-02-01T08:23:36;3;2;
40569;PMS5003;26270;34.428;-119.710;2023-02-01T08:26:05;2;2;
40569;PMS5003;26270;34.428;-119.710;2023-02-01T08:28:35;3;2;
40569;PMS5003;26270;34.428;-119.710;2023-02-01T08:31:05;2;1;
40569;PMS5003;26270;34.428;-119.710;2023-02-01T08:33:34;2;2;
40569;PMS5003;26270;34.428;-119.710;2023-02-01T08:36:02;1;1;
40569;PMS5003;26270;34.428;-119.710;2023-02-01T08:38:31;1;1;
40569;PMS5003;26270;34.428;-119.710;2023-02-01T08:41:04;1;1;
40569;PMS5003;26270;34.428;-119.710;2023-02-01T08:43:33;3;2;
40569;PMS5003;26270;34.428;-119.710;2023-02-01T08:46:01;2;1;
40569;PMS5003;26270;34.428;-119.710;2023-02-01T08:48:30;1;1;
40569;PMS5003;26270;34.428;-119.710;2023-02-01T08:51:00;2;1;
40569;PMS5003;26270;34.428;-119.710;2023-02-01T08:53:29;1;1;
40569;PMS5003;26270;34.428;-119.710;2023-02-01T08:55:57;1;1;
40569;PMS5003;26270;34.428;-119.710;2023-02-01T08:58:25;1;1;
40569;PMS5003;26270;34.428;-119.710;2023-02-01T09:00:53;2;2;
40569;PMS5003;26270;34.428;-119.710;2023-02-01T09:03:21;3;2;
40569;PMS5003;26270;34.428;-119.710;2023-02-01T09:05:49;4;4;
40569;PMS5003;26270;34.428;-119.710;2023-02-01T09:08:17;7;7;
40569;PMS5003;26270;34.428;-119.710;2023-02-01T09:10:45;12;11;
40569;PMS5003;26270;34.428;-119.710;2023-02-01T09:13:13;12;12;
40569;PMS5003;26270;34.428;-119.710;2023-02-01T09:15:41;11;11;
40569;PMS5003;26270;34.428;-119.710;2023-02-01T09:18:09;4;4;
40569;PMS5003;26270;34.428;-119.710;2023-02-01T09:20:37;3;3;
40569;PMS5003;26270;34.428;-119.710;2023-02-01T09:23:05;2;2;
40569;PMS5003;26270;34.428;-119.710;2023-02-01T09:25:33;2;2;
40569;PMS5003;26270;34.428;-119.710;2023-02-01T09:28:01;4;4;
40569;PMS5003;26270;34.428;-119.710;2023-02-01T09:30:29;4;4;
40569;PMS5003;26270;34.428;-119.710;2023-02-01T09:32:57;3;3;
40569;PMS5003;26270;34.428;-119.710;2023-02-01T09:35:25;2;2;
40569;PMS5003;26270;34.428;-119.710;2023-02-01T09:37:53;1;1;
40569;PMS5003;26270;34.428;-119.710;2023-02-01T09:40:22;2;2;
40569;PMS5003;26270;34.428;-119.710;2023-02-01T09:42:55;1;1;
40569;PMS5003;26270;34.428;-119.710;2023-02-01T09:45:47;1;1;
40569;PMS5003;26270;34.428;-119.710;2023-02-01T09:48:21;1;1;
40569;PMS5003;26270;34.428;-119.710;2023-02-01T09:50:56;1;1;
40569;PMS5003;26270;34.428;-119.710;2023-02-01T09:53:27;1;1;
40569;PMS5003;26270;34.428;-119.710;2023-02-01T09:55:59;0;0;
40569;PMS5003;26270;34.428;-119.710;2023-02-01T09:58:33;0;0;
40569;PMS5003;26270;34.428;-119.710;2023-02-01T10:01:04;0;0;
40569;PMS5003;26270;34.428;-119.710;2023-02-01T10:03:39;0;0;
40569;PMS5003;26270;34.428;-119.710;2023-02-01T10:06:14;1;1;
40569;PMS5003;26270;34.428;-119.710;2023-02-01T10:08:58;1;1;
40569;PMS5003;26270;34.428;-119.710;2023-02-01T10:11:42;1;1;
40569;PMS5003;26270;34.428;-119.710;2023-02-01T10:14:30;2;2;
40569;PMS5003;26270;34.428;-119.710;2023-02-01T10:17:12;1;1;
40569;PMS5003;26270;34.428;-119.710;2023-02-01T10:19:53;1;1;
40569;PMS5003;26270;34.428;-119.710;2023-02-01T10:22:31;2;2;
40569;PMS5003;26270;34.428;-119.710;2023-02-01T10:25:08;1;1;
40569;PMS5003;26270;34.428;-119.710;2023-02-01T10:27:44;0;0;
40569;PMS5003;26270;34.428;-119.710;2023-02-01T10:30:16;1;0;
40569;PMS5003;26270;34.428;-119.710;2023-02-01T10:32:47;1;1;
40569;PMS5003;26270;34.428;-119.710;2023-02-01T10:35:21;1;1;
40569;PMS5003;26270;34.428;-119.710;2023-02-01T10:37:54;0;0;
40569;PMS5003;26270;34.428;-119.710;2023-02-01T10:40:27;0;0;
40569;PMS5003;26270;34.428;-119.710;2023-02-01T10:42:57;2;2;
40569;PMS5003;26270;34.428;-119.710;2023-02-01T10:45:27;0;0;
40569;PMS5003;26270;34.428;-119.710;2023-02-01T10:47:58;1;1;
40569;PMS5003;26270;34.428;-119.710;2023-02-01T10:50:32;1;0;
40569;PMS5003;26270;34.428;-119.710;2023-02-01T10:53:03;1;0;
40569;PMS5003;26270;34.428;-119.710;2023-02-01T10:55:35;2;1;
40569;PMS5003;26270;34.428;-119.710;2023-02-01T10:58:06;1;1;
40569;PMS5003;26270;34.428;-119.710;2023-02-01T11:00:44;1;1;
40569;PMS5003;26270;34.428;-119.710;2023-02-01T11:03:28;0;0;
40569;PMS5003;26270;34.428;-119.710;2023-02-01T11:06:04;1;1;
40569;PMS5003;26270;34.428;-119.710;2023-02-01T11:08:43;0;0;
40569;PMS5003;26270;34.428;-119.710;2023-02-01T11:11:14;1;1;
40569;PMS5003;26270;34.428;-119.710;2023-02-01T11:13:42;1;1;
40569;PMS5003;26270;34.428;-119.710;2023-02-01T11:16:11;1;0;
40569;PMS5003;26270;34.428;-119.710;2023-02-01T11:18:41;0;0;
40569;PMS5003;26270;34.428;-119.710;2023-02-01T11:21:09;0;0;
40569;PMS5003;26270;34.428;-119.710;2023-02-01T11:23:41;0;0;
40569;PMS5003;26270;34.428;-119.710;2023-02-01T11:26:13;0;0;
40569;PMS5003;26270;34.428;-119.710;2023-02-01T11:28:48;0;0;
40569;PMS5003;26270;34.428;-119.710;2023-02-01T11:31:20;0;0;
40569;PMS5003;26270;34.428;-119.710;2023-02-01T11:33:50;1;1;
40569;PMS5003;26270;34.428;-119.710;2023-02-01T11:36:22;0;0;
40569;PMS5003;26270;34.428;-119.710;2023-02-01T11:38:54;1;1;
40569;PMS5003;26270;34.428;-119.710;2023-02-01T11:41:37;0;0;
40569;PMS5003;26270;34.428;-119.710;2023-02-01T11:44:19;1;0;
40569;PMS5003;26270;34.428;-119.710;2023-02-01T11:46:49;1;1;
40569;PMS5003;26270;34.428;-119.710;2023-02-01T11:49:20;1;1;
40569;PMS5003;26270;34.428;-119.710;2023-02-01T11:51:57;0;0;
40569;PMS5003;26270;34.428;-119.710;2023-02-01T11:54:39;0;0;
40569;PMS5003;26270;34.428;-119.710;2023-02-01T11:57:23;2;1;
40569;PMS5003;26270;34.428;-119.710;2023-02-01T12:00:06;1;1;
40569;PMS5003;26270;34.428;-119.710;2023-02-01T12:03:07;2;1;
40569;PMS5003;26270;34.428;-119.710;2023-02-01T12:05:53;1;1;
40569;PMS5003;26270;34.428;-119.710;2023-02-01T12:08:39;2;2;
40569;PMS5003;26270;34.428;-119.710;2023-02-01T12:11:25;2;1;
40569;PMS5003;26270;34.428;-119.710;2023-02-01T12:14:06;1;1;
40569;PMS5003;26270;34.428;-119.710;2023-02-01T12:16:53;2;1;
40569;PMS5003;26270;34.428;-119.710;2023-02-01T12:19:38;0;0;
40569;PMS5003;26270;34.428;-119.710;2023-02-01T12:22:24;0;0;
40569;PMS5003;26270;34.428;-119.710;2023-02-01T12:25:09;1;1;
40569;PMS5003;26270;34.428;-119.710;2023-02-01T12:28:13;2;2;
40569;PMS5003;26270;34.428;-119.710;2023-02-01T12:31:03;1;1;
40569;PMS5003;26270;34.428;-119.710;2023-02-01T12:33:47;1;1;
40569;PMS5003;26270;34.428;-119.710;2023-02-01T12:36:29;0;0;
40569;PMS5003;26270;34.428;-119.710;2023-02-01T12:39:05;0;0;
40569;PMS5003;26270;34.428;-119.710;2023-02-01T12:41:50;2;2;
40569;PMS5003;26270;34.428;-119.710;2023-02-01T12:44:28;1;1;
40569;PMS5003;26270;34.428;-119.710;2023-02-01T12:47:05;1;1;
40569;PMS5003;26270;34.428;-119.710;2023-02-01T12:49:43;0;0;
40569;PMS5003;26270;34.428;-119.710;2023-02-01T12:52:16;1;1;
40569;PMS5003;26270;34.428;-119.710;2023-02-01T12:54:49;0;0;
40569;PMS5003;26270;34.428;-119.710;2023-02-01T12:57:23;2;1;
40569;PMS5003;26270;34.428;-119.710;2023-02-01T12:59:56;2;1;
40569;PMS5003;26270;34.428;-119.710;2023-02-01T13:02:33;1;1;
40569;PMS5003;26270;34.428;-119.710;2023-02-01T13:05:11;1;1;
40569;PMS5003;26270;34.428;-119.710;2023-02-01T13:07:45;1;1;
40569;PMS5003;26270;34.428;-119.710;2023-02-01T13:10:18;2;1;
40569;PMS5003;26270;34.428;-119.710;2023-02-01T13:12:51;1;1;
40569;PMS5003;26270;34.428;-119.710;2023-02-01T13:15:24;1;1;
40569;PMS5003;26270;34.428;-119.710;2023-02-01T13:17:58;1;1;
40569;PMS5003;26270;34.428;-119.710;2023-02-01T13:20:30;0;0;
40569;PMS5003;26270;34.428;-119.710;2023-02-01T13:23:02;1;1;
40569;PMS5003;26270;34.428;-119.710;2023-02-01T13:25:37;0;0;
40569;PMS5003;26270;34.428;-119.710;2023-02-01T13:28:14;1;0;
40569;PMS5003;26270;34.428;-119.710;2023-02-01T13:30:52;1;1;
40569;PMS5003;26270;34.428;-119.710;2023-02-01T13:33:37;1;1;
40569;PMS5003;26270;34.428;-119.710;2023-02-01T13:36:19;2;2;
40569;PMS5003;26270;34.428;-119.710;2023-02-01T13:39:47;2;2;
40569;PMS5003;26270;34.428;-119.710;2023-02-01T13:42:25;1;1;
40569;PMS5003;26270;34.428;-119.710;2023-02-01T13:44:56;2;1;
40569;PMS5003;26270;34.428;-119.710;2023-02-01T13:47:29;1;1;
40569;PMS5003;26270;34.428;-119.710;2023-02-01T13:50:01;0;0;
40569;PMS5003;26270;34.428;-119.710;2023-02-01T13:52:39;0;0;
40569;PMS5003;26270;34.428;-119.710;2023-02-01T13:55:14;1;1;
40569;PMS5003;26270;34.428;-119.710;2023-02-01T13:57:52;0;0;
40569;PMS5003;26270;34.428;-119.710;2023-02-01T14:00:33;0;0;
40569;PMS5003;26270;34.428;-119.710;2023-02-01T14:03:08;0;0;
40569;PMS5003;26270;34.428;-119.710;2023-02-01T14:05:57;1;0;
40569;PMS5003;26270;34.428;-119.710;2023-02-01T14:08:36;0;0;
40569;PMS5003;26270;34.428;-119.710;2023-02-01T14:11:07;1;1;
40569;PMS5003;26270;34.428;-119.710;2023-02-01T14:14:07;0;0;
40569;PMS5003;26270;34.428;-119.710;2023-02-01T14:17:31;0;0;
40569;PMS5003;26270;34.428;-119.710;2023-02-01T14:20:40;1;1;
40569;PMS5003;26270;34.428;-119.710;2023-02-01T14:23:11;1;1;
40569;PMS5003;26270;34.428;-119.710;2023-02-01T14:25:42;0;0;
40569;PMS5003;26270;34.428;-119.710;2023-02-01T14:28:12;1;1;
40569;PMS5003;26270;34.428;-119.710;2023-02-01T14:30:49;2;1;
40569;PMS5003;26270;34.428;-119.710;2023-02-01T14:33:20;1;1;
40569;PMS5003;26270;34.428;-119.710;2023-02-01T14:36:01;1;1;
40569;PMS5003;26270;34.428;-119.710;2023-02-01T14:38:33;1;1;
40569;PMS5003;26270;34.428;-119.710;2023-02-01T14:41:36;0;0;
40569;PMS5003;26270;34.428;-119.710;2023-02-01T14:44:22;2;1;
40569;PMS5003;26270;34.428;-119.710;2023-02-01T14:47:10;0;0;
40569;PMS5003;26270;34.428;-119.710;2023-02-01T14:50:32;1;1;
40569;PMS5003;26270;34.428;-119.710;2023-02-01T14:53:06;0;0;
40569;PMS5003;26270;34.428;-119.710;2023-02-01T14:55:43;0;0;
40569;PMS5003;26270;34.428;-119.710;2023-02-01T14:58:18;0;0;
40569;PMS5003;26270;34.428;-119.710;2023-02-01T15:00:52;0;0;
40569;PMS5003;26270;34.428;-119.710;2023-02-01T15:03:34;0;0;
40569;PMS5003;26270;34.428;-119.710;2023-02-01T15:06:14;1;1;
40569;PMS5003;26270;34.428;-119.710;2023-02-01T15:08:52;0;0;
40569;PMS5003;26270;34.428;-119.710;2023-02-01T15:11:23;1;1;
40569;PMS5003;26270;34.428;-119.710;2023-02-01T15:13:51;1;1;
40569;PMS5003;26270;34.428;-119.710;2023-02-01T15:16:22;1;1;
40569;PMS5003;26270;34.428;-119.710;2023-02-01T15:19:06;1;1;
40569;PMS5003;26270;34.428;-119.710;2023-02-01T15:21:45;1;1;
40569;PMS5003;26270;34.428;-119.710;2023-02-01T15:24:17;3;3;
40569;PMS5003;26270;34.428;-119.710;2023-02-01T15:26:48;1;1;
40569;PMS5003;26270;34.428;-119.710;2023-02-01T15:29:18;0;0;
40569;PMS5003;26270;34.428;-119.710;2023-02-01T15:31:47;2;1;
40569;PMS5003;26270;34.428;-119.710;2023-02-01T15:34:17;1;1;
40569;PMS5003;26270;34.428;-119.710;2023-02-01T15:36:46;0;0;
40569;PMS5003;26270;34.428;-119.710;2023-02-01T15:39:17;1;1;
40569;PMS5003;26270;34.428;-119.710;2023-02-01T15:41:48;1;1;
40569;PMS5003;26270;34.428;-119.710;2023-02-01T15:44:19;0;0;
40569;PMS5003;26270;34.428;-119.710;2023-02-01T15:46:54;1;1;
40569;PMS5003;26270;34.428;-119.710;2023-02-01T15:49:24;0;0;
40569;PMS5003;26270;34.428;-119.710;2023-02-01T15:51:54;2;2;
40569;PMS5003;26270;34.428;-119.710;2023-02-01T15:54:25;2;1;
40569;PMS5003;26270;34.428;-119.710;2023-02-01T15:56:57;1;1;
40569;PMS5003;26270;34.428;-119.710;2023-02-01T15:59:30;1;1;
40569;PMS5003;26270;34.428;-119.710;2023-02-01T16:02:04;1;1;
40569;PMS5003;26270;34.428;-119.710;2023-02-01T16:04:53;7;3;
40569;PMS5003;26270;34.428;-119.710;2023-02-01T16:07:25;1;1;
40569;PMS5003;26270;34.428;-119.710;2023-02-01T16:09:56;2;2;
40569;PMS5003;26270;34.428;-119.710;2023-02-01T16:12:29;3;2;
40569;PMS5003;26270;34.428;-119.710;2023-02-01T16:14:59;1;1;
40569;PMS5003;26270;34.428;-119.710;2023-02-01T16:17:27;2;2;
40569;PMS5003;26270;34.428;-119.710;2023-02-01T16:19:55;2;2;
40569;PMS5003;26270;34.428;-119.710;2023-02-01T16:22:24;10;8;
40569;PMS5003;26270;34.428;-119.710;2023-02-01T16:24:52;13;7;
40569;PMS5003;26270;34.428;-119.710;2023-02-01T16:27:20;18;18;
40569;PMS5003;26270;34.428;-119.710;2023-02-01T16:29:48;13;12;